Time,TemperatureF,DewpointF,PressureIn,WindDirection,WindDirectionDegrees,WindSpeedMPH,WindSpeedGustMPH,Humidity,HourlyPrecipIn,Conditions,Clouds,dailyrainin,SoftwareType,DateUTC
2013-01-23 00:03:00,58.6,57.5,30.28,ENE,67,6.0,6.0,96,0.00,,---,0.00,VWS V14.01,2013-01-23 06:03:00,
2013-01-23 00:08:00,58.6,57.5,30.28,ENE,57,4.0,6.0,96,0.00,,---,0.00,VWS V14.01,2013-01-23 06:08:00,
2013-01-23 00:13:00,58.6,57.5,30.28,ENE,73,4.0,6.0,96,0.00,,---,0.00,VWS V14.01,2013-01-23 06:13:00,
2013-01-23 00:18:00,58.5,57.1,30.28,ENE,60,3.0,6.0,95,0.00,,---,0.00,VWS V14.01,2013-01-23 06:18:00,
2013-01-23 00:23:00,58.3,56.9,30.28,ENE,60,4.0,6.0,95,0.00,,---,0.00,VWS V14.01,2013-01-23 06:23:00,
2013-01-23 00:28:00,58.2,56.8,30.28,ENE,60,2.0,6.0,95,0.00,,---,0.00,VWS V14.01,2013-01-23 06:28:00,
2013-01-23 00:33:00,58.2,57.1,30.27,ENE,69,3.0,6.0,96,0.00,,---,0.00,VWS V14.01,2013-01-23 06:33:00,
2013-01-23 00:38:00,58.1,57.0,30.28,ENE,70,2.0,6.0,96,0.00,,---,0.00,VWS V14.01,2013-01-23 06:38:00,
2013-01-23 00:43:00,58.1,57.0,30.28,ENE,76,3.0,6.0,96,0.00,,---,0.00,VWS V14.01,2013-01-23 06:43:00,
2013-01-23 00:48:00,58.2,57.1,30.27,ENE,67,2.0,6.0,96,0.00,,---,0.00,VWS V14.01,2013-01-23 06:48:00,
2013-01-23 00:53:00,58.2,57.1,30.27,East,95,2.0,6.0,96,0.00,,---,0.00,VWS V14.01,2013-01-23 06:53:00,
2013-01-23 00:58:00,58.2,57.1,30.27,ENE,72,2.0,6.0,96,0.00,,---,0.00,VWS V14.01,2013-01-23 06:58:00,
2013-01-23 01:03:00,58.2,57.1,30.28,East,93,2.0,4.0,96,0.00,,---,0.00,VWS V14.01,2013-01-23 07:03:00,
2013-01-23 01:08:00,58.0,56.6,30.28,East,86,2.0,4.0,95,0.00,,---,0.00,VWS V14.01,2013-01-23 07:08:00,
2013-01-23 01:13:00,57.9,56.8,30.28,East,81,2.0,4.0,96,0.00,,---,0.00,VWS V14.01,2013-01-23 07:13:00,
2013-01-23 01:18:00,57.8,56.7,30.28,ENE,69,2.0,4.0,96,0.00,,---,0.00,VWS V14.01,2013-01-23 07:18:00,
2013-01-23 01:23:00,57.8,56.7,30.28,ENE,77,2.0,4.0,96,0.00,,---,0.00,VWS V14.01,2013-01-23 07:23:00,
2013-01-23 01:28:00,57.7,56.6,30.28,ENE,67,2.0,4.0,96,0.00,,---,0.00,VWS V14.01,2013-01-23 07:28:00,
2013-01-23 01:33:00,57.6,56.5,30.28,NE,51,2.0,4.0,96,0.00,,---,0.00,VWS V14.01,2013-01-23 07:33:00,
2013-01-23 01:38:00,57.5,56.4,30.28,NE,49,3.0,4.0,96,0.00,,---,0.00,VWS V14.01,2013-01-23 07:38:00,
2013-01-23 01:43:00,57.3,56.2,30.28,ENE,60,1.0,4.0,96,0.00,,---,0.00,VWS V14.01,2013-01-23 07:43:00,
2013-01-23 01:48:00,57.1,56.0,30.28,NE,39,3.0,4.0,96,0.00,,---,0.00,VWS V14.01,2013-01-23 07:48:00,
2013-01-23 01:53:00,57.0,55.9,30.28,NE,49,1.0,4.0,96,0.00,,---,0.00,VWS V14.01,2013-01-23 07:53:00,
2013-01-23 01:58:00,56.9,55.8,30.28,NE,46,1.0,4.0,96,0.00,,---,0.00,VWS V14.01,2013-01-23 07:58:00,
2013-01-23 02:03:00,56.8,55.7,30.28,ENE,60,1.0,2.0,96,0.00,,---,0.00,VWS V14.01,2013-01-23 08:03:00,
2013-01-23 02:08:00,56.9,56.1,30.27,NE,56,1.0,3.0,97,0.00,,---,0.00,VWS V14.01,2013-01-23 08:08:00,
2013-01-23 02:13:00,56.8,55.7,30.27,NE,53,2.0,3.0,96,0.00,,---,0.00,VWS V14.01,2013-01-23 08:13:00,
2013-01-23 02:18:00,56.8,56.0,30.28,NE,49,1.0,3.0,97,0.00,,---,0.00,VWS V14.01,2013-01-23 08:18:00,
2013-01-23 02:23:00,56.7,55.6,30.28,NE,36,2.0,3.0,96,0.00,,---,0.00,VWS V14.01,2013-01-23 08:23:00,
2013-01-23 02:28:00,56.6,55.5,30.27,NE,45,1.0,3.0,96,0.00,,---,0.00,VWS V14.01,2013-01-23 08:28:00,
2013-01-23 02:33:00,56.7,55.9,30.27,NE,56,0.0,3.0,97,0.00,,---,0.00,VWS V14.01,2013-01-23 08:33:00,
2013-01-23 02:38:00,56.7,55.9,30.27,NE,47,3.0,3.0,97,0.00,,---,0.00,VWS V14.01,2013-01-23 08:38:00,
2013-01-23 02:43:00,56.7,55.9,30.27,NNE,30,2.0,3.0,97,0.00,,---,0.00,VWS V14.01,2013-01-23 08:43:00,
2013-01-23 02:48:00,56.7,55.9,30.27,NE,34,1.0,3.0,97,0.00,,---,0.00,VWS V14.01,2013-01-23 08:48:00,
2013-01-23 02:53:00,56.7,55.9,30.27,NE,47,1.0,3.0,97,0.00,,---,0.00,VWS V14.01,2013-01-23 08:53:00,
2013-01-23 02:58:00,56.6,55.8,30.27,NE,56,2.0,3.0,97,0.00,,---,0.00,VWS V14.01,2013-01-23 08:58:00,
2013-01-23 03:03:00,56.7,55.9,30.27,NE,50,2.0,2.0,97,0.00,,---,0.00,VWS V14.01,2013-01-23 09:03:00,
2013-01-23 03:08:00,56.8,56.0,30.27,NE,56,1.0,2.0,97,0.00,,---,0.00,VWS V14.01,2013-01-23 09:08:00,
2013-01-23 03:13:00,56.9,56.1,30.27,NE,54,0.0,2.0,97,0.00,,---,0.00,VWS V14.01,2013-01-23 09:13:00,
2013-01-23 03:18:00,56.8,56.0,30.27,NE,45,0.0,2.0,97,0.00,,---,0.00,VWS V14.01,2013-01-23 09:18:00,
2013-01-23 03:23:00,56.8,56.0,30.27,NE,56,1.0,2.0,97,0.00,,---,0.00,VWS V14.01,2013-01-23 09:23:00,
2013-01-23 03:28:00,56.8,56.0,30.27,NE,50,2.0,3.0,97,0.00,,---,0.00,VWS V14.01,2013-01-23 09:28:00,
2013-01-23 03:33:00,56.9,56.1,30.27,NE,45,1.0,3.0,97,0.00,,---,0.00,VWS V14.01,2013-01-23 09:33:00,
2013-01-23 03:38:00,56.8,56.0,30.27,NE,53,1.0,3.0,97,0.00,,---,0.00,VWS V14.01,2013-01-23 09:38:00,
2013-01-23 03:43:00,56.7,55.9,30.27,ENE,60,1.0,3.0,97,0.00,,---,0.00,VWS V14.01,2013-01-23 09:43:00,
2013-01-23 03:48:00,56.7,55.9,30.27,ENE,58,1.0,3.0,97,0.00,,---,0.00,VWS V14.01,2013-01-23 09:48:00,
2013-01-23 03:53:00,56.8,56.0,30.27,ENE,58,2.0,3.0,97,0.00,,---,0.00,VWS V14.01,2013-01-23 09:53:00,
2013-01-23 03:58:00,56.8,56.0,30.27,ENE,74,2.0,3.0,97,0.00,,---,0.00,VWS V14.01,2013-01-23 09:58:00,
2013-01-23 04:03:00,57.0,56.2,30.27,ENE,75,1.0,2.0,97,0.00,,---,0.00,VWS V14.01,2013-01-23 10:03:00,
2013-01-23 04:08:00,57.1,56.3,30.26,ENE,63,2.0,2.0,97,0.01,,---,0.01,VWS V14.01,2013-01-23 10:08:00,
2013-01-23 04:13:00,57.3,56.5,30.27,NE,50,1.0,2.0,97,0.01,,---,0.01,VWS V14.01,2013-01-23 10:13:00,
2013-01-23 04:18:00,57.3,56.5,30.26,NE,56,2.0,2.0,97,0.01,,---,0.01,VWS V14.01,2013-01-23 10:18:00,
2013-01-23 04:23:00,57.5,56.7,30.26,ENE,65,1.0,3.0,97,0.01,,---,0.01,VWS V14.01,2013-01-23 10:23:00,
2013-01-23 04:28:00,57.6,56.8,30.26,NE,53,1.0,3.0,97,0.01,,---,0.01,VWS V14.01,2013-01-23 10:28:00,
2013-01-23 04:33:00,57.6,56.5,30.26,ENE,65,1.0,3.0,96,0.01,,---,0.01,VWS V14.01,2013-01-23 10:33:00,
2013-01-23 04:38:00,57.6,56.5,30.26,ENE,65,0.0,3.0,96,0.01,,---,0.01,VWS V14.01,2013-01-23 10:38:00,
2013-01-23 04:43:00,57.8,57.0,30.26,ENE,71,2.0,4.0,97,0.01,,---,0.01,VWS V14.01,2013-01-23 10:43:00,
2013-01-23 04:48:00,57.6,56.5,30.26,East,99,2.0,4.0,96,0.01,,---,0.01,VWS V14.01,2013-01-23 10:48:00,
2013-01-23 04:53:00,57.5,56.4,30.26,ENE,78,3.0,4.0,96,0.01,,---,0.01,VWS V14.01,2013-01-23 10:53:00,
2013-01-23 04:58:00,57.5,56.4,30.26,ENE,65,2.0,4.0,96,0.01,,---,0.01,VWS V14.01,2013-01-23 10:58:00,
2013-01-23 05:03:00,57.4,56.3,30.26,ENE,68,1.0,2.0,96,0.01,,---,0.01,VWS V14.01,2013-01-23 11:03:00,
2013-01-23 05:08:00,57.3,56.2,30.26,ENE,69,1.0,3.0,96,0.01,,---,0.01,VWS V14.01,2013-01-23 11:08:00,
2013-01-23 05:13:00,57.4,56.3,30.26,ENE,77,1.0,3.0,96,0.01,,---,0.01,VWS V14.01,2013-01-23 11:13:00,
2013-01-23 05:18:00,57.5,56.4,30.26,East,95,2.0,3.0,96,0.01,,---,0.01,VWS V14.01,2013-01-23 11:18:00,
2013-01-23 05:23:00,57.6,56.5,30.26,East,79,1.0,3.0,96,0.01,,---,0.01,VWS V14.01,2013-01-23 11:23:00,
2013-01-23 05:28:00,57.7,56.6,30.26,East,85,1.0,3.0,96,0.01,,---,0.01,VWS V14.01,2013-01-23 11:28:00,
2013-01-23 05:33:00,57.7,56.6,30.26,ENE,73,1.0,3.0,96,0.01,,---,0.01,VWS V14.01,2013-01-23 11:33:00,
2013-01-23 05:38:00,57.7,56.6,30.26,ENE,72,1.0,3.0,96,0.01,,---,0.01,VWS V14.01,2013-01-23 11:38:00,
2013-01-23 05:43:00,57.7,56.6,30.26,ENE,72,0.0,3.0,96,0.01,,---,0.01,VWS V14.01,2013-01-23 11:43:00,
2013-01-23 05:48:00,57.7,56.6,30.26,ENE,76,0.0,3.0,96,0.01,,---,0.01,VWS V14.01,2013-01-23 11:48:00,
2013-01-23 05:53:00,57.6,56.5,30.27,ENE,76,0.0,3.0,96,0.01,,---,0.01,VWS V14.01,2013-01-23 11:53:00,
2013-01-23 05:58:00,57.5,56.4,30.27,ENE,77,0.0,3.0,96,0.01,,---,0.01,VWS V14.01,2013-01-23 11:58:00,
2013-01-23 06:03:00,57.3,56.2,30.27,ENE,76,0.0,0.0,96,0.00,,---,0.01,VWS V14.01,2013-01-23 12:03:00,
2013-01-23 06:08:00,57.1,56.0,30.27,ENE,75,1.0,1.0,96,0.00,,---,0.01,VWS V14.01,2013-01-23 12:08:00,
2013-01-23 06:13:00,57.2,56.1,30.27,ENE,64,1.0,2.0,96,0.00,,---,0.01,VWS V14.01,2013-01-23 12:13:00,
2013-01-23 06:18:00,57.2,56.1,30.27,ENE,61,1.0,2.0,96,0.00,,---,0.01,VWS V14.01,2013-01-23 12:18:00,
2013-01-23 06:23:00,57.0,55.9,30.27,ENE,61,0.0,2.0,96,0.00,,---,0.01,VWS V14.01,2013-01-23 12:23:00,
2013-01-23 06:28:00,56.8,55.7,30.27,ENE,61,0.0,2.0,96,0.00,,---,0.01,VWS V14.01,2013-01-23 12:28:00,
2013-01-23 06:33:00,56.6,55.5,30.27,NE,44,1.0,2.0,96,0.00,,---,0.01,VWS V14.01,2013-01-23 12:33:00,
2013-01-23 06:38:00,56.4,55.3,30.28,NE,44,1.0,2.0,96,0.00,,---,0.01,VWS V14.01,2013-01-23 12:38:00,
2013-01-23 06:43:00,56.3,55.2,30.28,NE,36,2.0,2.0,96,0.00,,---,0.01,VWS V14.01,2013-01-23 12:43:00,
2013-01-23 06:48:00,56.1,55.0,30.28,NE,36,1.0,2.0,96,0.00,,---,0.01,VWS V14.01,2013-01-23 12:48:00,
2013-01-23 06:53:00,56.1,55.3,30.28,NE,36,1.0,2.0,97,0.00,,---,0.01,VWS V14.01,2013-01-23 12:53:00,
2013-01-23 06:59:00,56.1,55.3,30.28,NE,36,1.0,2.0,97,0.00,,---,0.01,VWS V14.01,2013-01-23 12:59:00,
2013-01-23 07:04:00,56.2,55.4,30.28,NE,37,1.0,1.0,97,0.00,,---,0.01,VWS V14.01,2013-01-23 13:04:00,
2013-01-23 07:09:00,56.3,55.5,30.29,NE,39,2.0,2.0,97,0.00,,---,0.01,VWS V14.01,2013-01-23 13:09:00,
2013-01-23 07:14:00,56.3,55.5,30.29,NE,38,1.0,2.0,97,0.00,,---,0.01,VWS V14.01,2013-01-23 13:14:00,
2013-01-23 07:19:00,56.5,55.7,30.29,NE,39,1.0,2.0,97,0.00,,---,0.01,VWS V14.01,2013-01-23 13:19:00,
2013-01-23 07:24:00,56.5,55.7,30.29,NE,40,1.0,2.0,97,0.00,,---,0.01,VWS V14.01,2013-01-23 13:24:00,
2013-01-23 07:29:00,56.6,55.8,30.29,NE,44,2.0,2.0,97,0.00,,---,0.01,VWS V14.01,2013-01-23 13:29:00,
2013-01-23 07:34:00,56.8,56.0,30.29,NE,49,2.0,3.0,97,0.00,,---,0.01,VWS V14.01,2013-01-23 13:34:00,
2013-01-23 07:39:00,56.8,56.0,30.29,NE,45,0.0,3.0,97,0.00,,---,0.01,VWS V14.01,2013-01-23 13:39:00,
2013-01-23 07:44:00,57.1,56.3,30.30,NE,53,0.0,3.0,97,0.00,,---,0.01,VWS V14.01,2013-01-23 13:44:00,
2013-01-23 07:49:00,57.3,56.5,30.30,NE,53,2.0,3.0,97,0.00,,---,0.01,VWS V14.01,2013-01-23 13:49:00,
2013-01-23 07:54:00,57.5,56.7,30.30,NE,49,2.0,3.0,97,0.00,,---,0.01,VWS V14.01,2013-01-23 13:54:00,
2013-01-23 07:59:00,57.7,56.9,30.30,NNE,32,2.0,3.0,97,0.00,,---,0.01,VWS V14.01,2013-01-23 13:59:00,
2013-01-23 08:04:00,57.9,57.1,30.30,NNE,33,1.0,3.0,97,0.00,,---,0.01,VWS V14.01,2013-01-23 14:04:00,
2013-01-23 08:09:00,58.3,57.5,30.31,ENE,57,0.0,3.0,97,0.00,,---,0.01,VWS V14.01,2013-01-23 14:09:00,
2013-01-23 08:14:00,58.8,58.0,30.30,NE,47,2.0,3.0,97,0.00,,---,0.01,VWS V14.01,2013-01-23 14:14:00,
2013-01-23 08:19:00,59.3,58.5,30.30,NE,56,2.0,3.0,97,0.00,,---,0.01,VWS V14.01,2013-01-23 14:19:00,
2013-01-23 08:24:00,59.9,59.0,30.31,ENE,75,1.0,5.0,97,0.00,,---,0.01,VWS V14.01,2013-01-23 14:24:00,
2013-01-23 08:29:00,60.4,59.3,30.31,ENE,57,0.0,5.0,96,0.00,,---,0.01,VWS V14.01,2013-01-23 14:29:00,
2013-01-23 08:34:00,60.8,59.7,30.31,NE,50,1.0,5.0,96,0.00,,---,0.01,VWS V14.01,2013-01-23 14:34:00,
2013-01-23 08:39:00,61.3,60.2,30.31,NE,49,2.0,5.0,96,0.00,,---,0.01,VWS V14.01,2013-01-23 14:39:00,
2013-01-23 08:44:00,61.8,60.4,30.32,ENE,61,0.0,5.0,95,0.00,,---,0.01,VWS V14.01,2013-01-23 14:44:00,
2013-01-23 08:49:00,62.1,60.4,30.32,ENE,64,3.0,5.0,94,0.00,,---,0.01,VWS V14.01,2013-01-23 14:49:00,
2013-01-23 08:54:00,62.4,61.0,30.32,ENE,62,1.0,5.0,95,0.00,,---,0.01,VWS V14.01,2013-01-23 14:54:00,
2013-01-23 08:59:00,62.6,60.8,30.32,ENE,61,3.0,5.0,94,0.00,,---,0.01,VWS V14.01,2013-01-23 14:59:00,
2013-01-23 09:04:00,63.1,61.3,30.32,ENE,65,2.0,2.0,94,0.00,,---,0.01,VWS V14.01,2013-01-23 15:04:00,
2013-01-23 09:09:00,63.8,61.7,30.32,East,90,1.0,4.0,93,0.00,,---,0.01,VWS V14.01,2013-01-23 15:09:00,
2013-01-23 09:14:00,64.1,61.7,30.33,East,95,3.0,4.0,92,0.00,,---,0.01,VWS V14.01,2013-01-23 15:14:00,
2013-01-23 09:19:00,64.2,61.8,30.33,East,94,3.0,4.0,92,0.00,,---,0.01,VWS V14.01,2013-01-23 15:19:00,
2013-01-23 09:24:00,64.5,62.1,30.33,East,96,1.0,4.0,92,0.00,,---,0.01,VWS V14.01,2013-01-23 15:24:00,
2013-01-23 09:29:00,65.0,62.3,30.33,ESE,114,4.0,5.0,91,0.00,,---,0.01,VWS V14.01,2013-01-23 15:29:00,
2013-01-23 09:34:00,64.9,62.2,30.33,SE,125,3.0,5.0,91,0.00,,---,0.01,VWS V14.01,2013-01-23 15:34:00,
2013-01-23 09:39:00,65.1,62.7,30.33,ESE,120,2.0,5.0,92,0.00,,---,0.01,VWS V14.01,2013-01-23 15:39:00,
2013-01-23 09:44:00,65.5,62.8,30.34,East,83,3.0,5.0,91,0.00,,---,0.01,VWS V14.01,2013-01-23 15:44:00,
2013-01-23 09:49:00,65.9,62.9,30.34,SE,125,3.0,5.0,90,0.00,,---,0.01,VWS V14.01,2013-01-23 15:49:00,
2013-01-23 09:54:00,66.5,63.8,30.34,ESE,118,4.0,5.0,91,0.00,,---,0.01,VWS V14.01,2013-01-23 15:54:00,
2013-01-23 09:59:00,66.6,63.3,30.34,ENE,77,1.0,6.0,89,0.00,,---,0.01,VWS V14.01,2013-01-23 15:59:00,
2013-01-23 10:04:00,66.7,63.4,30.34,ESE,103,6.0,6.0,89,0.00,,---,0.01,VWS V14.01,2013-01-23 16:04:00,
2013-01-23 10:09:00,66.5,63.2,30.35,East,101,5.0,6.0,89,0.00,,---,0.01,VWS V14.01,2013-01-23 16:09:00,
2013-01-23 10:14:00,66.7,63.4,30.35,ESE,111,3.0,6.0,89,0.00,,---,0.01,VWS V14.01,2013-01-23 16:14:00,
2013-01-23 10:19:00,67.4,64.1,30.35,East,90,3.0,6.0,89,0.00,,---,0.01,VWS V14.01,2013-01-23 16:19:00,
2013-01-23 10:24:00,67.7,63.4,30.35,East,99,6.0,6.0,86,0.00,,---,0.01,VWS V14.01,2013-01-23 16:24:00,
2013-01-23 10:29:00,67.6,63.6,30.35,ESE,120,5.0,7.0,87,0.00,,---,0.01,VWS V14.01,2013-01-23 16:29:00,
2013-01-23 10:34:00,67.5,63.2,30.35,SE,137,2.0,7.0,86,0.00,,---,0.01,VWS V14.01,2013-01-23 16:34:00,
2013-01-23 10:39:00,67.2,63.2,30.35,SE,127,3.0,7.0,87,0.00,,---,0.01,VWS V14.01,2013-01-23 16:39:00,
2013-01-23 10:44:00,67.1,63.1,30.35,ESE,117,4.0,7.0,87,0.00,,---,0.01,VWS V14.01,2013-01-23 16:44:00,
2013-01-23 10:49:00,66.9,62.9,30.35,ESE,121,4.0,7.0,87,0.00,,---,0.01,VWS V14.01,2013-01-23 16:49:00,
2013-01-23 10:54:00,66.8,62.8,30.35,ESE,122,2.0,7.0,87,0.00,,---,0.01,VWS V14.01,2013-01-23 16:54:00,
2013-01-23 10:59:00,67.2,63.2,30.36,ESE,109,2.0,7.0,87,0.00,,---,0.01,VWS V14.01,2013-01-23 16:59:00,
2013-01-23 11:04:00,67.9,63.6,30.35,SE,146,4.0,5.0,86,0.00,,---,0.01,VWS V14.01,2013-01-23 17:04:00,
2013-01-23 11:09:00,68.5,63.8,30.35,ESE,114,3.0,6.0,85,0.00,,---,0.01,VWS V14.01,2013-01-23 17:09:00,
2013-01-23 11:14:00,69.1,63.7,30.35,SSE,149,3.0,6.0,83,0.00,,---,0.01,VWS V14.01,2013-01-23 17:14:00,
2013-01-23 11:19:00,68.9,64.2,30.35,ESE,108,3.0,6.0,85,0.00,,---,0.01,VWS V14.01,2013-01-23 17:19:00,
2013-01-23 11:24:00,69.0,64.0,30.35,ESE,120,3.0,6.0,84,0.00,,---,0.01,VWS V14.01,2013-01-23 17:24:00,
2013-01-23 11:29:00,69.0,64.3,30.35,ESE,111,3.0,6.0,85,0.00,,---,0.01,VWS V14.01,2013-01-23 17:29:00,
2013-01-23 11:34:00,69.4,64.4,30.35,SE,125,4.0,6.0,84,0.00,,---,0.01,VWS V14.01,2013-01-23 17:34:00,
2013-01-23 11:39:00,69.8,64.8,30.34,SSW,212,1.0,6.0,84,0.00,,---,0.01,VWS V14.01,2013-01-23 17:39:00,
2013-01-23 11:44:00,70.4,65.0,30.34,ESE,122,5.0,6.0,83,0.00,,---,0.01,VWS V14.01,2013-01-23 17:44:00,
2013-01-23 11:49:00,70.4,64.7,30.34,South,175,3.0,7.0,82,0.00,,---,0.01,VWS V14.01,2013-01-23 17:49:00,
2013-01-23 11:54:00,70.8,64.3,30.34,ESE,118,3.0,7.0,80,0.00,,---,0.01,VWS V14.01,2013-01-23 17:54:00,
2013-01-23 11:59:00,70.9,64.8,30.34,ESE,110,5.0,7.0,81,0.00,,---,0.01,VWS V14.01,2013-01-23 17:59:00,
2013-01-23 12:04:00,71.7,64.8,30.33,SE,136,4.0,7.0,79,0.00,,---,0.01,VWS V14.01,2013-01-23 18:04:00,
2013-01-23 12:09:00,71.8,64.2,30.33,SSE,149,6.0,7.0,77,0.00,,---,0.01,VWS V14.01,2013-01-23 18:09:00,
2013-01-23 12:14:00,71.9,64.3,30.33,SSE,156,6.0,7.0,77,0.00,,---,0.01,VWS V14.01,2013-01-23 18:14:00,
2013-01-23 12:19:00,72.2,64.2,30.32,SSE,148,3.0,7.0,76,0.00,,---,0.01,VWS V14.01,2013-01-23 18:19:00,
2013-01-23 12:24:00,72.3,63.9,30.32,SE,138,2.0,9.0,75,0.00,,---,0.01,VWS V14.01,2013-01-23 18:24:00,
2013-01-23 12:29:00,72.7,63.9,30.32,SSE,159,6.0,9.0,74,0.00,,---,0.01,VWS V14.01,2013-01-23 18:29:00,
2013-01-23 12:34:00,72.9,64.1,30.32,SSW,204,8.0,9.0,74,0.00,,---,0.01,VWS V14.01,2013-01-23 18:34:00,
2013-01-23 12:39:00,73.0,63.0,30.31,South,188,6.0,11.0,71,0.00,,---,0.01,VWS V14.01,2013-01-23 18:39:00,
2013-01-23 12:44:00,73.3,62.9,30.31,ESE,115,11.0,11.0,70,0.00,,---,0.01,VWS V14.01,2013-01-23 18:44:00,
2013-01-23 12:49:00,73.4,63.4,30.31,SSW,201,3.0,11.0,71,0.00,,---,0.01,VWS V14.01,2013-01-23 18:49:00,
2013-01-23 12:54:00,73.4,63.0,30.31,SSW,207,4.0,11.0,70,0.00,,---,0.01,VWS V14.01,2013-01-23 18:54:00,
2013-01-23 12:59:00,73.3,62.9,30.30,SE,125,6.0,11.0,70,0.00,,---,0.01,VWS V14.01,2013-01-23 18:59:00,
2013-01-23 13:04:00,73.4,62.2,30.30,SSW,210,5.0,9.0,68,0.00,,---,0.01,VWS V14.01,2013-01-23 19:04:00,
2013-01-23 13:09:00,73.4,62.6,30.30,South,169,7.0,11.0,69,0.00,,---,0.01,VWS V14.01,2013-01-23 19:09:00,
2013-01-23 13:14:00,73.6,62.8,30.29,SSE,148,1.0,11.0,69,0.00,,---,0.01,VWS V14.01,2013-01-23 19:14:00,
2013-01-23 13:19:00,73.6,63.2,30.29,SSW,199,3.0,11.0,70,0.00,,---,0.01,VWS V14.01,2013-01-23 19:19:00,
2013-01-23 13:24:00,73.5,62.7,30.29,SSW,204,6.0,11.0,69,0.00,,---,0.01,VWS V14.01,2013-01-23 19:24:00,
2013-01-23 13:29:00,73.5,63.1,30.29,South,172,8.0,11.0,70,0.00,,---,0.01,VWS V14.01,2013-01-23 19:29:00,
2013-01-23 13:34:00,73.5,62.3,30.28,South,184,5.0,11.0,68,0.00,,---,0.01,VWS V14.01,2013-01-23 19:34:00,
2013-01-23 13:39:00,73.0,62.7,30.28,South,184,9.0,11.0,70,0.00,,---,0.01,VWS V14.01,2013-01-23 19:39:00,
2013-01-23 13:44:00,73.1,62.3,30.28,South,179,6.0,13.0,69,0.00,,---,0.01,VWS V14.01,2013-01-23 19:44:00,
2013-01-23 13:49:00,73.1,62.7,30.28,South,190,5.0,13.0,70,0.00,,---,0.01,VWS V14.01,2013-01-23 19:49:00,
2013-01-23 13:54:00,73.4,62.6,30.28,SSW,208,4.0,13.0,69,0.00,,---,0.01,VWS V14.01,2013-01-23 19:54:00,
2013-01-23 13:59:00,73.3,62.9,30.28,South,169,6.0,13.0,70,0.00,,---,0.01,VWS V14.01,2013-01-23 19:59:00,
2013-01-23 14:04:00,73.4,62.6,30.27,SSE,150,4.0,9.0,69,0.00,,---,0.01,VWS V14.01,2013-01-23 20:04:00,
2013-01-23 14:09:00,73.3,62.5,30.27,SSW,207,5.0,9.0,69,0.00,,---,0.01,VWS V14.01,2013-01-23 20:09:00,
2013-01-23 14:14:00,73.5,62.7,30.27,SSE,165,7.0,9.0,69,0.00,,---,0.01,VWS V14.01,2013-01-23 20:14:00,
2013-01-23 14:19:00,73.6,62.8,30.27,South,170,8.0,9.0,69,0.00,,---,0.01,VWS V14.01,2013-01-23 20:19:00,
2013-01-23 14:24:00,73.4,62.6,30.27,SSE,165,4.0,11.0,69,0.00,,---,0.01,VWS V14.01,2013-01-23 20:24:00,
2013-01-23 14:29:00,73.6,63.2,30.27,South,181,4.0,11.0,70,0.00,,---,0.01,VWS V14.01,2013-01-23 20:29:00,
2013-01-23 14:34:00,73.7,63.3,30.27,SSE,149,6.0,12.0,70,0.00,,---,0.01,VWS V14.01,2013-01-23 20:34:00,
2013-01-23 14:39:00,73.5,62.7,30.27,SSW,197,7.0,12.0,69,0.00,,---,0.01,VWS V14.01,2013-01-23 20:39:00,
2013-01-23 14:44:00,73.4,63.0,30.27,South,177,9.0,12.0,70,0.00,,---,0.01,VWS V14.01,2013-01-23 20:44:00,
2013-01-23 14:49:00,73.2,62.8,30.26,SSW,208,6.0,12.0,70,0.00,,---,0.01,VWS V14.01,2013-01-23 20:49:00,
2013-01-23 14:54:00,72.9,63.0,30.27,South,172,8.0,12.0,71,0.00,,---,0.01,VWS V14.01,2013-01-23 20:54:00,
2013-01-23 14:59:00,73.0,63.0,30.26,South,175,6.0,12.0,71,0.00,,---,0.01,VWS V14.01,2013-01-23 20:59:00,
2013-01-23 15:04:00,73.1,63.2,30.26,SSE,162,5.0,9.0,71,0.00,,---,0.01,VWS V14.01,2013-01-23 21:04:00,
2013-01-23 15:09:00,73.0,63.5,30.26,SSW,207,3.0,12.0,72,0.00,,---,0.01,VWS V14.01,2013-01-23 21:09:00,
2013-01-23 15:14:00,73.0,63.5,30.26,South,183,5.0,12.0,72,0.00,,---,0.01,VWS V14.01,2013-01-23 21:14:00,
2013-01-23 15:19:00,72.9,63.3,30.26,South,180,10.0,12.0,72,0.00,,---,0.01,VWS V14.01,2013-01-23 21:19:00,
2013-01-23 15:24:00,72.8,63.3,30.26,South,170,12.0,12.0,72,0.00,,---,0.01,VWS V14.01,2013-01-23 21:24:00,
2013-01-23 15:29:00,72.7,63.2,30.26,South,174,5.0,12.0,72,0.00,,---,0.01,VWS V14.01,2013-01-23 21:29:00,
2013-01-23 15:34:00,72.5,63.8,30.26,South,177,5.0,12.0,74,0.00,,---,0.01,VWS V14.01,2013-01-23 21:34:00,
2013-01-23 15:39:00,72.4,63.7,30.26,South,176,9.0,12.0,74,0.00,,---,0.01,VWS V14.01,2013-01-23 21:39:00,
2013-01-23 15:43:00,72.4,63.7,30.25,SSE,148,9.0,12.0,74,0.00,,---,0.01,VWS V14.01,2013-01-23 21:43:00,
2013-01-23 15:48:00,72.4,63.7,30.25,East,86,3.0,12.0,74,0.00,,---,0.01,VWS V14.01,2013-01-23 21:48:00,
2013-01-23 15:53:00,72.2,63.5,30.26,SSE,165,8.0,12.0,74,0.00,,---,0.01,VWS V14.01,2013-01-23 21:53:00,
2013-01-23 15:58:00,72.2,63.8,30.26,SE,139,4.0,12.0,75,0.00,,---,0.01,VWS V14.01,2013-01-23 21:58:00,
2013-01-23 16:03:00,72.1,63.8,30.26,SSE,160,4.0,10.0,75,0.00,,---,0.01,VWS V14.01,2013-01-23 22:03:00,
2013-01-23 16:08:00,72.1,63.8,30.26,SSE,156,5.0,12.0,75,0.00,,---,0.01,VWS V14.01,2013-01-23 22:08:00,
2013-01-23 16:13:00,71.8,63.5,30.26,SSE,165,7.0,12.0,75,0.00,,---,0.01,VWS V14.01,2013-01-23 22:13:00,
2013-01-23 16:18:00,71.8,63.8,30.26,SE,126,5.0,12.0,76,0.00,,---,0.01,VWS V14.01,2013-01-23 22:18:00,
2013-01-23 16:23:00,71.8,63.8,30.26,SE,145,6.0,12.0,76,0.00,,---,0.01,VWS V14.01,2013-01-23 22:23:00,
2013-01-23 16:28:00,71.5,63.9,30.26,SSE,154,4.0,12.0,77,0.00,,---,0.01,VWS V14.01,2013-01-23 22:28:00,
2013-01-23 16:33:00,71.5,63.9,30.25,ESE,121,8.0,12.0,77,0.00,,---,0.01,VWS V14.01,2013-01-23 22:33:00,
2013-01-23 16:38:00,71.2,64.0,30.25,SE,145,6.0,12.0,78,0.00,,---,0.01,VWS V14.01,2013-01-23 22:38:00,
2013-01-23 16:43:00,70.9,64.1,30.25,SSE,148,8.0,12.0,79,0.00,,---,0.01,VWS V14.01,2013-01-23 22:43:00,
2013-01-23 16:48:00,70.7,64.2,30.25,ESE,118,6.0,12.0,80,0.00,,---,0.01,VWS V14.01,2013-01-23 22:48:00,
2013-01-23 16:53:00,70.5,64.0,30.25,SE,138,4.0,12.0,80,0.00,,---,0.01,VWS V14.01,2013-01-23 22:53:00,
2013-01-23 16:58:00,70.3,64.2,30.25,ESE,113,7.0,12.0,81,0.00,,---,0.01,VWS V14.01,2013-01-23 22:58:00,
2013-01-23 17:03:00,70.1,64.4,30.25,South,173,5.0,7.0,82,0.00,,---,0.01,VWS V14.01,2013-01-23 23:03:00,
2013-01-23 17:08:00,69.9,64.2,30.25,SSE,149,2.0,8.0,82,0.00,,---,0.01,VWS V14.01,2013-01-23 23:08:00,
2013-01-23 17:13:00,69.7,64.0,30.25,SE,141,5.0,8.0,82,0.00,,---,0.01,VWS V14.01,2013-01-23 23:13:00,
2013-01-23 17:18:00,69.5,64.1,30.25,South,169,3.0,8.0,83,0.00,,---,0.01,VWS V14.01,2013-01-23 23:18:00,
2013-01-23 17:23:00,69.3,63.9,30.25,ESE,105,6.0,8.0,83,0.00,,---,0.01,VWS V14.01,2013-01-23 23:23:00,
2013-01-23 17:28:00,69.0,64.0,30.25,SE,135,4.0,8.0,84,0.00,,---,0.01,VWS V14.01,2013-01-23 23:28:00,
2013-01-23 17:33:00,68.7,63.7,30.25,SSE,147,5.0,8.0,84,0.00,,---,0.01,VWS V14.01,2013-01-23 23:33:00,
2013-01-23 17:38:00,68.4,63.7,30.25,SSE,168,4.0,8.0,85,0.00,,---,0.01,VWS V14.01,2013-01-23 23:38:00,
2013-01-23 17:43:00,68.1,63.8,30.25,SSE,155,3.0,8.0,86,0.00,,---,0.01,VWS V14.01,2013-01-23 23:43:00,
2013-01-23 17:48:00,67.7,63.4,30.25,SSE,156,1.0,8.0,86,0.00,,---,0.01,VWS V14.01,2013-01-23 23:48:00,
2013-01-23 17:53:00,67.3,63.3,30.25,SSE,165,2.0,8.0,87,0.00,,---,0.01,VWS V14.01,2013-01-23 23:53:00,
2013-01-23 17:58:00,67.0,63.3,30.25,SE,146,2.0,8.0,88,0.00,,---,0.01,VWS V14.01,2013-01-23 23:58:00,
2013-01-23 18:03:00,66.7,63.4,30.25,ESE,112,3.0,3.0,89,0.00,,---,0.01,VWS V14.01,2013-01-24 00:03:00,
2013-01-23 18:08:00,66.3,63.0,30.25,ESE,118,1.0,3.0,89,0.00,,---,0.01,VWS V14.01,2013-01-24 00:08:00,
2013-01-23 18:13:00,66.0,63.0,30.25,SSE,153,1.0,3.0,90,0.00,,---,0.01,VWS V14.01,2013-01-24 00:13:00,
2013-01-23 18:18:00,65.7,63.0,30.26,SE,139,1.0,3.0,91,0.00,,---,0.01,VWS V14.01,2013-01-24 00:18:00,
2013-01-23 18:23:00,65.5,62.8,30.26,SE,140,0.0,3.0,91,0.00,,---,0.01,VWS V14.01,2013-01-24 00:23:00,
2013-01-23 18:28:00,65.3,62.9,30.25,SE,134,1.0,3.0,92,0.00,,---,0.01,VWS V14.01,2013-01-24 00:28:00,
2013-01-23 18:33:00,65.1,62.7,30.25,ESE,110,2.0,3.0,92,0.00,,---,0.01,VWS V14.01,2013-01-24 00:33:00,
2013-01-23 18:38:00,64.9,62.5,30.25,SSE,148,1.0,4.0,92,0.00,,---,0.01,VWS V14.01,2013-01-24 00:38:00,
2013-01-23 18:43:00,64.7,62.6,30.25,SE,128,1.0,4.0,93,0.00,,---,0.01,VWS V14.01,2013-01-24 00:43:00,
2013-01-23 18:48:00,64.5,62.4,30.25,ESE,112,2.0,4.0,93,0.00,,---,0.01,VWS V14.01,2013-01-24 00:48:00,
2013-01-23 18:53:00,64.3,62.2,30.25,SE,124,0.0,6.0,93,0.00,,---,0.01,VWS V14.01,2013-01-24 00:53:00,
2013-01-23 18:58:00,64.2,62.1,30.26,ESE,122,1.0,6.0,93,0.00,,---,0.01,VWS V14.01,2013-01-24 00:58:00,
2013-01-23 19:03:00,64.1,62.0,30.26,ESE,120,2.0,2.0,93,0.00,,---,0.01,VWS V14.01,2013-01-24 01:03:00,
2013-01-23 19:08:00,64.0,61.9,30.26,ESE,115,3.0,3.0,93,0.00,,---,0.01,VWS V14.01,2013-01-24 01:08:00,
2013-01-23 19:13:00,63.9,62.1,30.26,SE,136,0.0,3.0,94,0.00,,---,0.01,VWS V14.01,2013-01-24 01:13:00,
2013-01-23 19:18:00,63.8,62.0,30.26,ESE,122,2.0,3.0,94,0.00,,---,0.01,VWS V14.01,2013-01-24 01:18:00,
2013-01-23 19:23:00,63.7,62.0,30.26,East,92,2.0,4.0,94,0.00,,---,0.01,VWS V14.01,2013-01-24 01:23:00,
2013-01-23 19:28:00,63.6,61.8,30.26,South,172,1.0,5.0,94,0.00,,---,0.01,VWS V14.01,2013-01-24 01:28:00,
2013-01-23 19:33:00,63.4,61.7,30.26,ESE,110,1.0,5.0,94,0.00,,---,0.01,VWS V14.01,2013-01-24 01:33:00,
2013-01-23 19:38:00,63.4,61.7,30.26,SE,139,3.0,5.0,94,0.00,,---,0.01,VWS V14.01,2013-01-24 01:38:00,
2013-01-23 19:43:00,63.3,61.5,30.26,SSE,149,3.0,5.0,94,0.00,,---,0.01,VWS V14.01,2013-01-24 01:43:00,
2013-01-23 19:48:00,63.3,61.8,30.26,SE,146,1.0,5.0,95,0.00,,---,0.01,VWS V14.01,2013-01-24 01:48:00,
2013-01-23 19:53:00,63.3,61.8,30.26,South,171,2.0,5.0,95,0.00,,---,0.01,VWS V14.01,2013-01-24 01:53:00,
2013-01-23 19:58:00,63.4,62.0,30.26,ESE,117,2.0,5.0,95,0.00,,---,0.01,VWS V14.01,2013-01-24 01:58:00,
2013-01-23 20:03:00,63.5,62.0,30.26,SE,135,2.0,3.0,95,0.00,,---,0.01,VWS V14.01,2013-01-24 02:03:00,
2013-01-23 20:08:00,63.5,62.0,30.26,SSE,149,1.0,4.0,95,0.00,,---,0.01,VWS V14.01,2013-01-24 02:08:00,
2013-01-23 20:13:00,63.6,62.2,30.26,SE,129,2.0,4.0,95,0.00,,---,0.01,VWS V14.01,2013-01-24 02:13:00,
2013-01-23 20:18:00,63.7,62.2,30.26,SE,136,1.0,6.0,95,0.00,,---,0.01,VWS V14.01,2013-01-24 02:18:00,
2013-01-23 20:23:00,63.8,62.3,30.26,SE,141,1.0,6.0,95,0.00,,---,0.01,VWS V14.01,2013-01-24 02:23:00,
2013-01-23 20:28:00,63.9,62.4,30.26,ESE,119,4.0,6.0,95,0.00,,---,0.01,VWS V14.01,2013-01-24 02:28:00,
2013-01-23 20:33:00,64.0,62.5,30.26,SE,125,6.0,8.0,95,0.00,,---,0.01,VWS V14.01,2013-01-24 02:33:00,
2013-01-23 20:38:00,64.0,62.5,30.26,SE,143,4.0,8.0,95,0.00,,---,0.01,VWS V14.01,2013-01-24 02:38:00,
2013-01-23 20:43:00,63.9,62.4,30.26,SE,142,1.0,8.0,95,0.00,,---,0.01,VWS V14.01,2013-01-24 02:43:00,
2013-01-23 20:48:00,63.9,62.4,30.25,SSE,155,4.0,8.0,95,0.00,,---,0.01,VWS V14.01,2013-01-24 02:48:00,
2013-01-23 20:53:00,63.9,62.4,30.25,SSE,165,2.0,8.0,95,0.00,,---,0.01,VWS V14.01,2013-01-24 02:53:00,
2013-01-23 20:58:00,64.0,62.5,30.25,SE,145,6.0,8.0,95,0.00,,---,0.01,VWS V14.01,2013-01-24 02:58:00,
2013-01-23 21:03:00,64.2,62.7,30.25,SSE,153,3.0,8.0,95,0.00,,---,0.01,VWS V14.01,2013-01-24 03:03:00,
2013-01-23 21:08:00,64.3,62.8,30.25,SSE,152,4.0,8.0,95,0.00,,---,0.01,VWS V14.01,2013-01-24 03:08:00,
2013-01-23 21:13:00,64.4,62.9,30.26,SSE,158,4.0,8.0,95,0.00,,---,0.01,VWS V14.01,2013-01-24 03:13:00,
2013-01-23 21:18:00,64.5,63.0,30.26,South,172,4.0,8.0,95,0.00,,---,0.01,VWS V14.01,2013-01-24 03:18:00,
2013-01-23 21:23:00,64.5,63.0,30.26,South,172,6.0,8.0,95,0.00,,---,0.01,VWS V14.01,2013-01-24 03:23:00,
2013-01-23 21:28:00,64.6,63.1,30.26,SSE,156,4.0,8.0,95,0.00,,---,0.01,VWS V14.01,2013-01-24 03:28:00,
2013-01-23 21:33:00,64.6,62.8,30.26,SSE,163,1.0,8.0,94,0.00,,---,0.01,VWS V14.01,2013-01-24 03:33:00,
2013-01-23 21:38:00,64.6,63.1,30.26,SSE,160,3.0,8.0,95,0.00,,---,0.01,VWS V14.01,2013-01-24 03:38:00,
2013-01-23 21:43:00,64.6,63.1,30.26,SSE,156,4.0,8.0,95,0.00,,---,0.01,VWS V14.01,2013-01-24 03:43:00,
2013-01-23 21:48:00,64.6,63.1,30.26,SE,146,5.0,8.0,95,0.00,,---,0.01,VWS V14.01,2013-01-24 03:48:00,
2013-01-23 21:53:00,64.6,63.1,30.26,ESE,105,1.0,8.0,95,0.00,,---,0.01,VWS V14.01,2013-01-24 03:53:00,
2013-01-23 21:58:00,64.6,63.1,30.26,SSE,159,6.0,8.0,95,0.00,,---,0.01,VWS V14.01,2013-01-24 03:58:00,
2013-01-23 22:03:00,64.5,63.0,30.26,SSE,150,2.0,5.0,95,0.00,,---,0.01,VWS V14.01,2013-01-24 04:03:00,
2013-01-23 22:08:00,64.4,62.9,30.26,SW,214,3.0,6.0,95,0.00,,---,0.01,VWS V14.01,2013-01-24 04:08:00,
2013-01-23 22:13:00,64.4,62.9,30.26,SE,136,3.0,7.0,95,0.00,,---,0.01,VWS V14.01,2013-01-24 04:13:00,
2013-01-23 22:18:00,64.3,62.8,30.26,SSW,199,4.0,7.0,95,0.00,,---,0.01,VWS V14.01,2013-01-24 04:18:00,
2013-01-23 22:23:00,64.3,62.8,30.26,SSE,149,2.0,7.0,95,0.00,,---,0.01,VWS V14.01,2013-01-24 04:23:00,
2013-01-23 22:28:00,64.3,62.8,30.26,South,179,3.0,7.0,95,0.00,,---,0.01,VWS V14.01,2013-01-24 04:28:00,
2013-01-23 22:33:00,64.4,62.9,30.26,SSE,160,4.0,7.0,95,0.00,,---,0.01,VWS V14.01,2013-01-24 04:33:00,
2013-01-23 22:38:00,64.4,62.9,30.26,SE,138,6.0,8.0,95,0.00,,---,0.01,VWS V14.01,2013-01-24 04:38:00,
2013-01-23 22:43:00,64.5,63.0,30.26,SSE,159,4.0,8.0,95,0.00,,---,0.01,VWS V14.01,2013-01-24 04:43:00,
2013-01-23 22:48:00,64.6,63.1,30.26,South,181,4.0,9.0,95,0.00,,---,0.01,VWS V14.01,2013-01-24 04:48:00,
2013-01-23 22:53:00,64.6,63.1,30.26,SE,145,6.0,9.0,95,0.00,,---,0.01,VWS V14.01,2013-01-24 04:53:00,
2013-01-23 22:58:00,64.6,63.1,30.26,SSE,158,6.0,9.0,95,0.00,,---,0.01,VWS V14.01,2013-01-24 04:58:00,
2013-01-23 23:00:00,64.6,63.1,30.26,SSE,162,7.0,9.0,95,0.00,,---,0.01,VWS V14.01,2013-01-24 05:00:00,
2013-01-23 23:01:00,64.6,63.1,30.26,SSW,213,4.0,9.0,95,0.00,,---,0.01,VWS V14.01,2013-01-24 05:01:00,
2013-01-23 23:02:00,64.7,63.2,30.26,South,172,5.0,8.0,95,0.00,,---,0.01,VWS V14.01,2013-01-24 05:02:00,
2013-01-23 23:03:00,64.7,63.2,30.26,South,170,9.0,9.0,95,0.00,,---,0.01,VWS V14.01,2013-01-24 05:03:00,
2013-01-23 23:08:00,64.7,63.2,30.26,SSW,198,7.0,9.0,95,0.00,,---,0.01,VWS V14.01,2013-01-24 05:08:00,
2013-01-23 23:13:00,64.7,63.2,30.26,SSE,159,2.0,10.0,95,0.00,,---,0.01,VWS V14.01,2013-01-24 05:13:00,
2013-01-23 23:18:00,64.7,63.2,30.26,South,174,10.0,10.0,95,0.00,,---,0.01,VWS V14.01,2013-01-24 05:18:00,
2013-01-23 23:23:00,64.8,63.3,30.26,SSE,147,8.0,10.0,95,0.00,,---,0.01,VWS V14.01,2013-01-24 05:23:00,
2013-01-23 23:28:00,64.8,63.3,30.26,SSE,167,4.0,10.0,95,0.00,,---,0.01,VWS V14.01,2013-01-24 05:28:00,
2013-01-23 23:33:00,64.8,63.3,30.26,SSE,148,3.0,10.0,95,0.00,,---,0.01,VWS V14.01,2013-01-24 05:33:00,
2013-01-23 23:38:00,64.7,63.2,30.26,SE,143,4.0,10.0,95,0.00,,---,0.01,VWS V14.01,2013-01-24 05:38:00,
2013-01-23 23:43:00,64.8,63.3,30.26,SE,132,4.0,10.0,95,0.00,,---,0.01,VWS V14.01,2013-01-24 05:43:00,
2013-01-23 23:48:00,64.8,63.3,30.26,South,185,7.0,10.0,95,0.00,,---,0.01,VWS V14.01,2013-01-24 05:48:00,
2013-01-23 23:53:00,64.7,63.2,30.26,SSW,197,3.0,10.0,95,0.00,,---,0.01,VWS V14.01,2013-01-24 05:53:00,
2013-01-23 23:58:00,64.8,63.3,30.26,SSW,203,5.0,10.0,95,0.00,,---,0.01,VWS V14.01,2013-01-24 05:58:00,